sensor_id;sensor_type;location;lat;lon;timestamp;P1;durP1;ratioP1;P2;durP2;ratioP2
54555;SDS011;57291;37.520;15.106;2022-11-15T00:01:44;7.75;;;2.50;;
54555;SDS011;57291;37.520;15.106;2022-11-15T00:04:30;5.72;;;2.70;;
54555;SDS011;57291;37.520;15.106;2022-11-15T00:07:16;4.05;;;2.40;;
54555;SDS011;57291;37.520;15.106;2022-11-15T00:10:22;4.78;;;2.30;;
54555;SDS011;57291;37.520;15.106;2022-11-15T00:13:08;7.05;;;2.85;;
54555;SDS011;57291;37.520;15.106;2022-11-15T00:15:56;5.53;;;3.25;;
54555;SDS011;57291;37.520;15.106;2022-11-15T00:18:43;4.78;;;2.78;;
54555;SDS011;57291;37.520;15.106;2022-11-15T00:21:35;8.95;;;3.20;;
54555;SDS011;57291;37.520;15.106;2022-11-15T00:24:20;4.70;;;2.90;;
54555;SDS011;57291;37.520;15.106;2022-11-15T00:27:06;4.90;;;3.10;;
54555;SDS011;57291;37.520;15.106;2022-11-15T00:29:52;4.68;;;3.17;;
54555;SDS011;57291;37.520;15.106;2022-11-15T00:32:38;5.97;;;3.10;;
54555;SDS011;57291;37.520;15.106;2022-11-15T00:35:24;4.70;;;2.92;;
54555;SDS011;57291;37.520;15.106;2022-11-15T00:38:11;4.68;;;2.80;;
54555;SDS011;57291;37.520;15.106;2022-11-15T00:40:57;4.82;;;3.30;;
54555;SDS011;57291;37.520;15.106;2022-11-15T00:43:43;6.95;;;3.00;;
54555;SDS011;57291;37.520;15.106;2022-11-15T00:46:29;6.30;;;3.05;;
54555;SDS011;57291;37.520;15.106;2022-11-15T00:49:14;4.78;;;2.92;;
54555;SDS011;57291;37.520;15.106;2022-11-15T00:52:00;6.20;;;2.90;;
54555;SDS011;57291;37.520;15.106;2022-11-15T00:54:46;5.35;;;2.60;;
54555;SDS011;57291;37.520;15.106;2022-11-15T00:57:32;4.80;;;2.50;;
54555;SDS011;57291;37.520;15.106;2022-11-15T01:00:18;5.32;;;2.95;;
54555;SDS011;57291;37.520;15.106;2022-11-15T01:03:04;5.25;;;2.90;;
54555;SDS011;57291;37.520;15.106;2022-11-15T01:05:49;5.53;;;2.90;;
54555;SDS011;57291;37.520;15.106;2022-11-15T01:08:35;4.93;;;2.75;;
54555;SDS011;57291;37.520;15.106;2022-11-15T01:11:21;5.18;;;2.90;;
54555;SDS011;57291;37.520;15.106;2022-11-15T01:14:07;5.10;;;3.33;;
54555;SDS011;57291;37.520;15.106;2022-11-15T01:16:53;6.78;;;3.30;;
54555;SDS011;57291;37.520;15.106;2022-11-15T01:19:39;6.97;;;3.60;;
54555;SDS011;57291;37.520;15.106;2022-11-15T01:22:25;7.45;;;4.25;;
54555;SDS011;57291;37.520;15.106;2022-11-15T01:25:11;8.88;;;3.95;;
54555;SDS011;57291;37.520;15.106;2022-11-15T01:27:56;7.25;;;4.45;;
54555;SDS011;57291;37.520;15.106;2022-11-15T01:30:42;8.10;;;4.53;;
54555;SDS011;57291;37.520;15.106;2022-11-15T01:33:28;5.53;;;3.80;;
54555;SDS011;57291;37.520;15.106;2022-11-15T01:36:19;6.38;;;4.03;;
54555;SDS011;57291;37.520;15.106;2022-11-15T01:39:07;5.20;;;3.55;;
54555;SDS011;57291;37.520;15.106;2022-11-15T01:41:53;6.38;;;4.32;;
54555;SDS011;57291;37.520;15.106;2022-11-15T01:44:44;6.80;;;4.40;;
54555;SDS011;57291;37.520;15.106;2022-11-15T01:47:37;6.95;;;3.75;;
54555;SDS011;57291;37.520;15.106;2022-11-15T01:50:29;6.75;;;4.13;;
54555;SDS011;57291;37.520;15.106;2022-11-15T01:53:18;6.82;;;3.70;;
54555;SDS011;57291;37.520;15.106;2022-11-15T01:56:07;6.78;;;3.88;;
54555;SDS011;57291;37.520;15.106;2022-11-15T01:58:57;7.20;;;4.10;;
54555;SDS011;57291;37.520;15.106;2022-11-15T02:01:46;6.28;;;3.72;;
54555;SDS011;57291;37.520;15.106;2022-11-15T02:04:32;6.55;;;4.10;;
54555;SDS011;57291;37.520;15.106;2022-11-15T02:07:21;8.80;;;4.20;;
54555;SDS011;57291;37.520;15.106;2022-11-15T02:10:12;9.25;;;3.85;;
54555;SDS011;57291;37.520;15.106;2022-11-15T02:12:59;9.23;;;4.10;;
54555;SDS011;57291;37.520;15.106;2022-11-15T02:16:03;5.85;;;3.50;;
54555;SDS011;57291;37.520;15.106;2022-11-15T02:37:30;7.55;;;3.92;;
54555;SDS011;57291;37.520;15.106;2022-11-15T02:43:16;5.28;;;3.72;;
54555;SDS011;57291;37.520;15.106;2022-11-15T02:46:34;7.13;;;4.13;;
54555;SDS011;57291;37.520;15.106;2022-11-15T02:49:51;8.77;;;4.90;;
54555;SDS011;57291;37.520;15.106;2022-11-15T02:52:39;6.97;;;4.10;;
54555;SDS011;57291;37.520;15.106;2022-11-15T02:55:35;6.88;;;4.35;;
54555;SDS011;57291;37.520;15.106;2022-11-15T03:04:46;8.20;;;4.32;;
54555;SDS011;57291;37.520;15.106;2022-11-15T03:07:51;6.13;;;4.07;;
54555;SDS011;57291;37.520;15.106;2022-11-15T03:19:48;7.63;;;3.72;;
54555;SDS011;57291;37.520;15.106;2022-11-15T03:22:39;9.45;;;4.15;;
54555;SDS011;57291;37.520;15.106;2022-11-15T03:25:28;8.23;;;4.03;;
54555;SDS011;57291;37.520;15.106;2022-11-15T03:28:20;5.88;;;3.53;;
54555;SDS011;57291;37.520;15.106;2022-11-15T03:31:14;7.78;;;4.30;;
54555;SDS011;57291;37.520;15.106;2022-11-15T03:34:30;7.90;;;3.67;;
54555;SDS011;57291;37.520;15.106;2022-11-15T03:37:45;7.60;;;4.32;;
54555;SDS011;57291;37.520;15.106;2022-11-15T03:43:45;6.05;;;4.00;;
54555;SDS011;57291;37.520;15.106;2022-11-15T03:46:39;5.35;;;3.58;;
54555;SDS011;57291;37.520;15.106;2022-11-15T03:49:38;8.70;;;4.10;;
54555;SDS011;57291;37.520;15.106;2022-11-15T03:52:31;4.85;;;3.78;;
54555;SDS011;57291;37.520;15.106;2022-11-15T03:55:19;8.00;;;4.32;;
54555;SDS011;57291;37.520;15.106;2022-11-15T03:58:06;7.63;;;3.70;;
54555;SDS011;57291;37.520;15.106;2022-11-15T04:00:52;7.07;;;4.00;;
54555;SDS011;57291;37.520;15.106;2022-11-15T04:03:38;6.07;;;3.95;;
54555;SDS011;57291;37.520;15.106;2022-11-15T04:06:24;5.80;;;3.63;;
54555;SDS011;57291;37.520;15.106;2022-11-15T04:09:09;5.65;;;3.65;;
54555;SDS011;57291;37.520;15.106;2022-11-15T04:11:56;6.97;;;4.50;;
54555;SDS011;57291;37.520;15.106;2022-11-15T04:14:42;6.97;;;4.35;;
54555;SDS011;57291;37.520;15.106;2022-11-15T04:20:34;7.95;;;3.80;;
54555;SDS011;57291;37.520;15.106;2022-11-15T04:23:39;6.93;;;4.20;;
54555;SDS011;57291;37.520;15.106;2022-11-15T04:26:43;7.03;;;4.00;;
54555;SDS011;57291;37.520;15.106;2022-11-15T04:29:29;7.43;;;3.90;;
54555;SDS011;57291;37.520;15.106;2022-11-15T04:32:20;6.43;;;3.75;;
54555;SDS011;57291;37.520;15.106;2022-11-15T04:35:06;5.85;;;3.75;;
54555;SDS011;57291;37.520;15.106;2022-11-15T04:37:51;6.07;;;3.83;;
54555;SDS011;57291;37.520;15.106;2022-11-15T04:40:37;7.50;;;3.85;;
54555;SDS011;57291;37.520;15.106;2022-11-15T04:43:23;4.93;;;3.72;;
54555;SDS011;57291;37.520;15.106;2022-11-15T04:46:09;6.65;;;3.67;;
54555;SDS011;57291;37.520;15.106;2022-11-15T04:48:55;6.68;;;3.70;;
54555;SDS011;57291;37.520;15.106;2022-11-15T04:51:43;7.72;;;4.22;;
54555;SDS011;57291;37.520;15.106;2022-11-15T04:54:29;6.28;;;4.25;;
54555;SDS011;57291;37.520;15.106;2022-11-15T04:57:15;7.07;;;4.20;;
54555;SDS011;57291;37.520;15.106;2022-11-15T05:00:01;6.28;;;4.20;;
54555;SDS011;57291;37.520;15.106;2022-11-15T05:02:48;10.45;;;5.07;;
54555;SDS011;57291;37.520;15.106;2022-11-15T05:05:53;8.68;;;4.60;;
54555;SDS011;57291;37.520;15.106;2022-11-15T05:08:38;10.68;;;4.78;;
54555;SDS011;57291;37.520;15.106;2022-11-15T05:11:24;9.68;;;4.40;;
54555;SDS011;57291;37.520;15.106;2022-11-15T05:14:12;9.90;;;5.50;;
54555;SDS011;57291;37.520;15.106;2022-11-15T05:16:58;8.23;;;4.72;;
54555;SDS011;57291;37.520;15.106;2022-11-15T05:19:44;10.75;;;5.20;;
54555;SDS011;57291;37.520;15.106;2022-11-15T05:22:30;8.38;;;5.40;;
54555;SDS011;57291;37.520;15.106;2022-11-15T05:25:16;9.40;;;6.18;;
54555;SDS011;57291;37.520;15.106;2022-11-15T05:28:02;8.88;;;6.72;;
54555;SDS011;57291;37.520;15.106;2022-11-15T05:30:47;8.45;;;6.07;;
54555;SDS011;57291;37.520;15.106;2022-11-15T05:33:33;9.00;;;6.57;;
54555;SDS011;57291;37.520;15.106;2022-11-15T05:39:21;10.35;;;6.20;;
54555;SDS011;57291;37.520;15.106;2022-11-15T05:42:08;9.75;;;5.95;;
54555;SDS011;57291;37.520;15.106;2022-11-15T05:44:56;9.57;;;6.22;;
54555;SDS011;57291;37.520;15.106;2022-11-15T05:47:44;14.77;;;7.88;;
54555;SDS011;57291;37.520;15.106;2022-11-15T05:50:30;13.50;;;7.50;;
54555;SDS011;57291;37.520;15.106;2022-11-15T05:53:17;10.30;;;6.55;;
54555;SDS011;57291;37.520;15.106;2022-11-15T05:56:04;10.63;;;5.80;;
54555;SDS011;57291;37.520;15.106;2022-11-15T05:58:55;9.20;;;5.30;;
54555;SDS011;57291;37.520;15.106;2022-11-15T06:01:44;9.07;;;5.43;;
54555;SDS011;57291;37.520;15.106;2022-11-15T06:04:30;10.60;;;5.20;;
54555;SDS011;57291;37.520;15.106;2022-11-15T06:07:15;7.47;;;5.22;;
54555;SDS011;57291;37.520;15.106;2022-11-15T06:10:01;10.20;;;5.93;;
54555;SDS011;57291;37.520;15.106;2022-11-15T06:12:48;11.88;;;6.43;;
54555;SDS011;57291;37.520;15.106;2022-11-15T06:15:42;12.27;;;6.03;;
54555;SDS011;57291;37.520;15.106;2022-11-15T06:18:28;10.82;;;5.78;;
54555;SDS011;57291;37.520;15.106;2022-11-15T06:21:17;12.05;;;6.63;;
54555;SDS011;57291;37.520;15.106;2022-11-15T06:24:02;11.93;;;6.25;;
54555;SDS011;57291;37.520;15.106;2022-11-15T06:26:49;10.32;;;6.53;;
54555;SDS011;57291;37.520;15.106;2022-11-15T06:29:35;11.27;;;7.30;;
54555;SDS011;57291;37.520;15.106;2022-11-15T06:32:21;11.55;;;8.40;;
54555;SDS011;57291;37.520;15.106;2022-11-15T06:35:07;15.43;;;9.68;;
54555;SDS011;57291;37.520;15.106;2022-11-15T06:37:53;16.17;;;10.70;;
54555;SDS011;57291;37.520;15.106;2022-11-15T06:40:39;22.00;;;11.13;;
54555;SDS011;57291;37.520;15.106;2022-11-15T06:43:25;15.90;;;10.00;;
54555;SDS011;57291;37.520;15.106;2022-11-15T06:46:11;16.20;;;10.65;;
54555;SDS011;57291;37.520;15.106;2022-11-15T06:48:57;16.33;;;9.65;;
54555;SDS011;57291;37.520;15.106;2022-11-15T06:51:43;16.58;;;10.25;;
54555;SDS011;57291;37.520;15.106;2022-11-15T06:54:28;13.27;;;8.77;;
54555;SDS011;57291;37.520;15.106;2022-11-15T06:57:14;15.85;;;8.70;;
54555;SDS011;57291;37.520;15.106;2022-11-15T07:00:00;14.57;;;8.55;;
54555;SDS011;57291;37.520;15.106;2022-11-15T07:02:46;13.93;;;7.93;;
54555;SDS011;57291;37.520;15.106;2022-11-15T07:05:33;14.82;;;9.00;;
54555;SDS011;57291;37.520;15.106;2022-11-15T07:08:18;13.35;;;8.52;;
54555;SDS011;57291;37.520;15.106;2022-11-15T07:11:05;15.40;;;8.10;;
54555;SDS011;57291;37.520;15.106;2022-11-15T07:13:52;13.05;;;8.68;;
54555;SDS011;57291;37.520;15.106;2022-11-15T07:16:38;14.18;;;8.32;;
54555;SDS011;57291;37.520;15.106;2022-11-15T07:19:24;16.95;;;9.02;;
54555;SDS011;57291;37.520;15.106;2022-11-15T07:22:10;14.55;;;8.98;;
54555;SDS011;57291;37.520;15.106;2022-11-15T07:24:55;20.17;;;10.32;;
54555;SDS011;57291;37.520;15.106;2022-11-15T07:27:41;15.05;;;9.52;;
54555;SDS011;57291;37.520;15.106;2022-11-15T07:30:27;14.32;;;8.90;;
54555;SDS011;57291;37.520;15.106;2022-11-15T07:33:13;19.42;;;11.13;;
54555;SDS011;57291;37.520;15.106;2022-11-15T07:36:00;21.50;;;12.43;;
54555;SDS011;57291;37.520;15.106;2022-11-15T07:38:49;24.00;;;14.75;;
54555;SDS011;57291;37.520;15.106;2022-11-15T07:41:35;25.50;;;15.98;;
54555;SDS011;57291;37.520;15.106;2022-11-15T07:44:21;24.38;;;12.93;;
54555;SDS011;57291;37.520;15.106;2022-11-15T07:47:06;22.23;;;11.50;;
54555;SDS011;57291;37.520;15.106;2022-11-15T07:49:52;19.30;;;10.82;;
54555;SDS011;57291;37.520;15.106;2022-11-15T07:52:38;21.85;;;11.07;;
54555;SDS011;57291;37.520;15.106;2022-11-15T07:55:25;19.55;;;9.95;;
54555;SDS011;57291;37.520;15.106;2022-11-15T07:58:12;18.33;;;8.82;;
54555;SDS011;57291;37.520;15.106;2022-11-15T08:01:02;15.88;;;8.07;;
54555;SDS011;57291;37.520;15.106;2022-11-15T08:03:49;10.32;;;6.10;;
54555;SDS011;57291;37.520;15.106;2022-11-15T08:06:35;21.30;;;8.85;;
54555;SDS011;57291;37.520;15.106;2022-11-15T08:09:21;17.10;;;9.40;;
54555;SDS011;57291;37.520;15.106;2022-11-15T08:12:07;15.73;;;8.38;;
54555;SDS011;57291;37.520;15.106;2022-11-15T08:14:53;21.50;;;9.55;;
54555;SDS011;57291;37.520;15.106;2022-11-15T08:17:39;13.18;;;7.78;;
54555;SDS011;57291;37.520;15.106;2022-11-15T08:20:25;10.10;;;6.97;;
54555;SDS011;57291;37.520;15.106;2022-11-15T08:23:14;11.23;;;7.07;;
54555;SDS011;57291;37.520;15.106;2022-11-15T08:26:01;15.68;;;7.63;;
54555;SDS011;57291;37.520;15.106;2022-11-15T08:28:48;8.73;;;5.65;;
54555;SDS011;57291;37.520;15.106;2022-11-15T08:31:34;7.10;;;4.13;;
54555;SDS011;57291;37.520;15.106;2022-11-15T08:34:21;10.05;;;3.97;;
54555;SDS011;57291;37.520;15.106;2022-11-15T08:37:08;5.90;;;3.63;;
54555;SDS011;57291;37.520;15.106;2022-11-15T08:39:54;8.57;;;3.10;;
54555;SDS011;57291;37.520;15.106;2022-11-15T08:42:40;9.60;;;4.90;;
54555;SDS011;57291;37.520;15.106;2022-11-15T08:45:26;6.32;;;3.58;;
54555;SDS011;57291;37.520;15.106;2022-11-15T08:48:12;7.90;;;4.38;;
54555;SDS011;57291;37.520;15.106;2022-11-15T08:50:57;5.22;;;3.75;;
54555;SDS011;57291;37.520;15.106;2022-11-15T08:53:43;7.03;;;3.45;;
54555;SDS011;57291;37.520;15.106;2022-11-15T08:56:29;8.00;;;4.50;;
54555;SDS011;57291;37.520;15.106;2022-11-15T08:59:15;10.25;;;4.45;;
54555;SDS011;57291;37.520;15.106;2022-11-15T09:02:00;9.85;;;4.78;;
54555;SDS011;57291;37.520;15.106;2022-11-15T09:04:47;10.63;;;3.78;;
54555;SDS011;57291;37.520;15.106;2022-11-15T09:07:33;8.98;;;4.25;;
54555;SDS011;57291;37.520;15.106;2022-11-15T09:10:19;8.07;;;3.75;;
54555;SDS011;57291;37.520;15.106;2022-11-15T09:13:04;8.73;;;4.20;;
54555;SDS011;57291;37.520;15.106;2022-11-15T09:15:50;7.35;;;4.03;;
54555;SDS011;57291;37.520;15.106;2022-11-15T09:18:36;8.63;;;4.10;;
54555;SDS011;57291;37.520;15.106;2022-11-15T09:21:22;8.15;;;4.57;;
54555;SDS011;57291;37.520;15.106;2022-11-15T09:24:08;10.70;;;4.50;;
54555;SDS011;57291;37.520;15.106;2022-11-15T09:26:54;9.75;;;4.95;;
54555;SDS011;57291;37.520;15.106;2022-11-15T09:29:40;9.95;;;5.50;;
54555;SDS011;57291;37.520;15.106;2022-11-15T09:32:28;10.38;;;5.35;;
54555;SDS011;57291;37.520;15.106;2022-11-15T09:35:22;19.83;;;8.75;;
54555;SDS011;57291;37.520;15.106;2022-11-15T09:38:08;16.95;;;9.23;;
54555;SDS011;57291;37.520;15.106;2022-11-15T09:40:59;17.95;;;9.43;;
54555;SDS011;57291;37.520;15.106;2022-11-15T09:50:17;13.23;;;7.60;;
54555;SDS011;57291;37.520;15.106;2022-11-15T09:53:10;15.20;;;8.20;;
54555;SDS011;57291;37.520;15.106;2022-11-15T10:01:55;15.88;;;7.38;;
54555;SDS011;57291;37.520;15.106;2022-11-15T10:04:26;12.45;;;7.88;;
54555;SDS011;57291;37.520;15.106;2022-11-15T10:12:29;13.90;;;8.30;;
54555;SDS011;57291;37.520;15.106;2022-11-15T10:15:02;14.75;;;8.00;;
54555;SDS011;57291;37.520;15.106;2022-11-15T10:17:38;11.20;;;7.47;;
54555;SDS011;57291;37.520;15.106;2022-11-15T10:20:20;12.52;;;6.90;;
54555;SDS011;57291;37.520;15.106;2022-11-15T10:22:50;11.55;;;6.30;;
54555;SDS011;57291;37.520;15.106;2022-11-15T10:25:23;12.95;;;6.05;;
54555;SDS011;57291;37.520;15.106;2022-11-15T10:27:57;9.63;;;4.90;;
54555;SDS011;57291;37.520;15.106;2022-11-15T10:30:37;10.65;;;5.13;;
54555;SDS011;57291;37.520;15.106;2022-11-15T10:41:21;10.65;;;6.47;;
54555;SDS011;57291;37.520;15.106;2022-11-15T10:44:30;13.57;;;7.13;;
54555;SDS011;57291;37.520;15.106;2022-11-15T10:49:25;15.15;;;7.60;;
54555;SDS011;57291;37.520;15.106;2022-11-15T10:52:02;14.38;;;7.35;;
54555;SDS011;57291;37.520;15.106;2022-11-15T10:54:43;10.60;;;5.65;;
54555;SDS011;57291;37.520;15.106;2022-11-15T10:59:49;12.65;;;5.10;;
54555;SDS011;57291;37.520;15.106;2022-11-15T11:04:58;11.20;;;5.28;;
54555;SDS011;57291;37.520;15.106;2022-11-15T11:07:28;11.85;;;5.85;;
54555;SDS011;57291;37.520;15.106;2022-11-15T11:12:32;11.52;;;5.88;;
54555;SDS011;57291;37.520;15.106;2022-11-15T11:15:05;12.30;;;6.07;;
54555;SDS011;57291;37.520;15.106;2022-11-15T11:17:43;10.10;;;5.18;;
54555;SDS011;57291;37.520;15.106;2022-11-15T11:25:44;13.43;;;4.25;;
54555;SDS011;57291;37.520;15.106;2022-11-15T11:31:10;10.48;;;4.85;;
54555;SDS011;57291;37.520;15.106;2022-11-15T11:40:32;9.77;;;4.38;;
54555;SDS011;57291;37.520;15.106;2022-11-15T11:48:13;6.53;;;3.33;;
54555;SDS011;57291;37.520;15.106;2022-11-15T11:50:47;9.43;;;3.20;;
54555;SDS011;57291;37.520;15.106;2022-11-15T11:53:29;7.20;;;2.80;;
54555;SDS011;57291;37.520;15.106;2022-11-15T11:56:04;7.30;;;3.05;;
54555;SDS011;57291;37.520;15.106;2022-11-15T11:58:44;8.05;;;3.20;;
54555;SDS011;57291;37.520;15.106;2022-11-15T12:01:21;6.55;;;3.08;;
54555;SDS011;57291;37.520;15.106;2022-11-15T12:06:38;4.55;;;2.33;;
54555;SDS011;57291;37.520;15.106;2022-11-15T12:09:14;4.53;;;1.85;;
54555;SDS011;57291;37.520;15.106;2022-11-15T12:11:50;4.70;;;1.83;;
54555;SDS011;57291;37.520;15.106;2022-11-15T12:14:22;5.32;;;2.20;;
54555;SDS011;57291;37.520;15.106;2022-11-15T12:16:51;9.25;;;2.75;;
54555;SDS011;57291;37.520;15.106;2022-11-15T12:19:18;10.25;;;2.58;;
54555;SDS011;57291;37.520;15.106;2022-11-15T12:21:50;9.27;;;3.25;;
54555;SDS011;57291;37.520;15.106;2022-11-15T12:24:25;4.18;;;2.72;;
54555;SDS011;57291;37.520;15.106;2022-11-15T12:26:59;4.00;;;2.67;;
54555;SDS011;57291;37.520;15.106;2022-11-15T12:29:35;7.80;;;3.17;;
54555;SDS011;57291;37.520;15.106;2022-11-15T12:32:14;5.70;;;2.70;;
54555;SDS011;57291;37.520;15.106;2022-11-15T12:34:53;8.05;;;2.85;;
54555;SDS011;57291;37.520;15.106;2022-11-15T12:43:33;8.20;;;3.40;;
54555;SDS011;57291;37.520;15.106;2022-11-15T12:45:44;6.28;;;3.17;;
54555;SDS011;57291;37.520;15.106;2022-11-15T13:11:57;9.73;;;3.63;;
54555;SDS011;57291;37.520;15.106;2022-11-15T13:20:07;8.93;;;3.63;;
54555;SDS011;57291;37.520;15.106;2022-11-15T13:30:53;7.72;;;3.50;;
54555;SDS011;57291;37.520;15.106;2022-11-15T13:36:03;5.75;;;3.20;;
54555;SDS011;57291;37.520;15.106;2022-11-15T13:38:34;5.22;;;3.05;;
54555;SDS011;57291;37.520;15.106;2022-11-15T13:41:19;8.75;;;2.95;;
54555;SDS011;57291;37.520;15.106;2022-11-15T13:43:49;10.82;;;3.00;;
54555;SDS011;57291;37.520;15.106;2022-11-15T13:46:21;5.60;;;3.05;;
54555;SDS011;57291;37.520;15.106;2022-11-15T13:48:52;5.18;;;2.95;;
54555;SDS011;57291;37.520;15.106;2022-11-15T13:54:25;7.78;;;3.47;;
54555;SDS011;57291;37.520;15.106;2022-11-15T13:57:00;5.70;;;3.45;;
54555;SDS011;57291;37.520;15.106;2022-11-15T13:59:37;8.98;;;3.90;;
54555;SDS011;57291;37.520;15.106;2022-11-15T14:02:21;9.35;;;4.20;;
54555;SDS011;57291;37.520;15.106;2022-11-15T14:04:55;8.13;;;4.15;;
54555;SDS011;57291;37.520;15.106;2022-11-15T14:07:26;10.75;;;3.83;;
54555;SDS011;57291;37.520;15.106;2022-11-15T14:09:55;11.30;;;4.55;;
54555;SDS011;57291;37.520;15.106;2022-11-15T14:12:27;9.88;;;4.28;;
54555;SDS011;57291;37.520;15.106;2022-11-15T14:14:57;6.65;;;4.07;;
54555;SDS011;57291;37.520;15.106;2022-11-15T14:19:56;9.18;;;3.92;;
54555;SDS011;57291;37.520;15.106;2022-11-15T14:22:25;10.35;;;4.25;;
54555;SDS011;57291;37.520;15.106;2022-11-15T14:25:13;9.68;;;4.43;;
54555;SDS011;57291;37.520;15.106;2022-11-15T14:30:52;10.27;;;4.30;;
54555;SDS011;57291;37.520;15.106;2022-11-15T14:35:55;9.77;;;3.95;;
54555;SDS011;57291;37.520;15.106;2022-11-15T14:38:24;8.80;;;4.00;;
54555;SDS011;57291;37.520;15.106;2022-11-15T14:40:54;11.07;;;4.20;;
54555;SDS011;57291;37.520;15.106;2022-11-15T14:43:22;8.10;;;3.55;;
54555;SDS011;57291;37.520;15.106;2022-11-15T14:45:49;8.82;;;3.75;;
54555;SDS011;57291;37.520;15.106;2022-11-15T14:48:16;6.80;;;3.50;;
54555;SDS011;57291;37.520;15.106;2022-11-15T14:50:44;9.93;;;3.45;;
54555;SDS011;57291;37.520;15.106;2022-11-15T14:53:12;10.90;;;4.80;;
54555;SDS011;57291;37.520;15.106;2022-11-15T14:55:41;7.47;;;3.97;;
54555;SDS011;57291;37.520;15.106;2022-11-15T14:58:09;9.55;;;4.10;;
54555;SDS011;57291;37.520;15.106;2022-11-15T15:00:38;11.57;;;3.85;;
54555;SDS011;57291;37.520;15.106;2022-11-15T15:03:06;12.90;;;4.90;;
54555;SDS011;57291;37.520;15.106;2022-11-15T15:05:39;7.82;;;4.20;;
54555;SDS011;57291;37.520;15.106;2022-11-15T15:08:08;14.15;;;4.32;;
54555;SDS011;57291;37.520;15.106;2022-11-15T15:10:41;9.02;;;4.45;;
54555;SDS011;57291;37.520;15.106;2022-11-15T15:13:17;8.98;;;4.47;;
54555;SDS011;57291;37.520;15.106;2022-11-15T15:15:47;9.20;;;4.25;;
54555;SDS011;57291;37.520;15.106;2022-11-15T15:18:15;9.13;;;4.60;;
54555;SDS011;57291;37.520;15.106;2022-11-15T15:20:43;8.68;;;5.18;;
54555;SDS011;57291;37.520;15.106;2022-11-15T15:23:16;10.70;;;4.85;;
54555;SDS011;57291;37.520;15.106;2022-11-15T15:25:44;14.03;;;5.33;;
54555;SDS011;57291;37.520;15.106;2022-11-15T15:28:14;9.27;;;5.03;;
54555;SDS011;57291;37.520;15.106;2022-11-15T15:30:42;11.88;;;4.45;;
54555;SDS011;57291;37.520;15.106;2022-11-15T15:33:09;9.38;;;5.18;;
54555;SDS011;57291;37.520;15.106;2022-11-15T15:35:37;13.20;;;5.32;;
54555;SDS011;57291;37.520;15.106;2022-11-15T15:38:04;11.38;;;5.50;;
54555;SDS011;57291;37.520;15.106;2022-11-15T15:40:32;11.75;;;5.10;;
54555;SDS011;57291;37.520;15.106;2022-11-15T15:42:59;11.07;;;5.75;;
54555;SDS011;57291;37.520;15.106;2022-11-15T15:45:27;13.00;;;6.43;;
54555;SDS011;57291;37.520;15.106;2022-11-15T15:47:56;13.75;;;6.53;;
54555;SDS011;57291;37.520;15.106;2022-11-15T15:50:27;14.82;;;7.20;;
54555;SDS011;57291;37.520;15.106;2022-11-15T15:52:57;14.48;;;7.07;;
54555;SDS011;57291;37.520;15.106;2022-11-15T15:55:27;14.07;;;6.97;;
54555;SDS011;57291;37.520;15.106;2022-11-15T15:57:55;16.45;;;7.57;;
54555;SDS011;57291;37.520;15.106;2022-11-15T16:00:23;13.70;;;7.10;;
54555;SDS011;57291;37.520;15.106;2022-11-15T16:02:52;17.52;;;7.57;;
54555;SDS011;57291;37.520;15.106;2022-11-15T16:05:20;12.93;;;7.03;;
54555;SDS011;57291;37.520;15.106;2022-11-15T16:07:49;14.13;;;7.95;;
54555;SDS011;57291;37.520;15.106;2022-11-15T16:12:48;17.55;;;7.38;;
54555;SDS011;57291;37.520;15.106;2022-11-15T16:15:16;16.08;;;7.70;;
54555;SDS011;57291;37.520;15.106;2022-11-15T16:17:46;14.77;;;7.60;;
54555;SDS011;57291;37.520;15.106;2022-11-15T16:22:57;14.70;;;6.78;;
54555;SDS011;57291;37.520;15.106;2022-11-15T16:25:38;13.23;;;6.95;;
54555;SDS011;57291;37.520;15.106;2022-11-15T16:31:05;19.95;;;7.75;;
54555;SDS011;57291;37.520;15.106;2022-11-15T16:33:36;16.50;;;6.97;;
54555;SDS011;57291;37.520;15.106;2022-11-15T16:36:04;15.45;;;7.95;;
54555;SDS011;57291;37.520;15.106;2022-11-15T16:38:32;16.38;;;8.95;;
54555;SDS011;57291;37.520;15.106;2022-11-15T16:41:00;15.05;;;8.50;;
54555;SDS011;57291;37.520;15.106;2022-11-15T16:43:27;11.90;;;8.13;;
54555;SDS011;57291;37.520;15.106;2022-11-15T16:45:54;19.77;;;8.00;;
54555;SDS011;57291;37.520;15.106;2022-11-15T16:48:23;12.60;;;7.78;;
54555;SDS011;57291;37.520;15.106;2022-11-15T16:50:55;22.27;;;8.85;;
54555;SDS011;57291;37.520;15.106;2022-11-15T16:53:24;24.85;;;11.85;;
54555;SDS011;57291;37.520;15.106;2022-11-15T16:55:52;22.27;;;12.52;;
54555;SDS011;57291;37.520;15.106;2022-11-15T16:58:21;20.27;;;11.43;;
54555;SDS011;57291;37.520;15.106;2022-11-15T17:00:52;21.83;;;11.95;;
54555;SDS011;57291;37.520;15.106;2022-11-15T17:03:20;21.27;;;10.98;;
54555;SDS011;57291;37.520;15.106;2022-11-15T17:05:51;22.33;;;10.23;;
54555;SDS011;57291;37.520;15.106;2022-11-15T17:08:18;23.73;;;11.10;;
54555;SDS011;57291;37.520;15.106;2022-11-15T17:10:47;20.63;;;10.13;;
54555;SDS011;57291;37.520;15.106;2022-11-15T17:13:15;18.00;;;10.32;;
54555;SDS011;57291;37.520;15.106;2022-11-15T17:15:42;25.15;;;11.70;;
54555;SDS011;57291;37.520;15.106;2022-11-15T17:18:10;21.08;;;11.23;;
54555;SDS011;57291;37.520;15.106;2022-11-15T17:20:39;21.38;;;10.52;;
54555;SDS011;57291;37.520;15.106;2022-11-15T17:23:09;18.98;;;10.73;;
54555;SDS011;57291;37.520;15.106;2022-11-15T17:25:40;21.92;;;10.88;;
54555;SDS011;57291;37.520;15.106;2022-11-15T17:28:07;20.50;;;11.20;;
54555;SDS011;57291;37.520;15.106;2022-11-15T17:30:36;21.42;;;10.32;;
54555;SDS011;57291;37.520;15.106;2022-11-15T17:33:06;22.33;;;10.07;;
54555;SDS011;57291;37.520;15.106;2022-11-15T17:35:33;22.48;;;10.05;;
54555;SDS011;57291;37.520;15.106;2022-11-15T17:38:00;22.88;;;12.27;;
54555;SDS011;57291;37.520;15.106;2022-11-15T17:40:27;23.80;;;11.15;;
54555;SDS011;57291;37.520;15.106;2022-11-15T17:42:54;21.10;;;10.07;;
54555;SDS011;57291;37.520;15.106;2022-11-15T17:45:23;13.93;;;7.88;;
54555;SDS011;57291;37.520;15.106;2022-11-15T17:47:50;15.27;;;8.18;;
54555;SDS011;57291;37.520;15.106;2022-11-15T17:50:19;17.23;;;9.20;;
54555;SDS011;57291;37.520;15.106;2022-11-15T17:52:46;16.02;;;9.02;;
54555;SDS011;57291;37.520;15.106;2022-11-15T17:55:14;24.65;;;9.70;;
54555;SDS011;57291;37.520;15.106;2022-11-15T17:57:42;16.58;;;9.77;;
54555;SDS011;57291;37.520;15.106;2022-11-15T18:00:10;15.20;;;8.20;;
54555;SDS011;57291;37.520;15.106;2022-11-15T18:02:37;16.63;;;8.20;;
54555;SDS011;57291;37.520;15.106;2022-11-15T18:05:05;16.13;;;8.60;;
54555;SDS011;57291;37.520;15.106;2022-11-15T18:07:32;21.73;;;10.30;;
54555;SDS011;57291;37.520;15.106;2022-11-15T18:10:00;16.10;;;8.23;;
54555;SDS011;57291;37.520;15.106;2022-11-15T18:12:27;18.15;;;8.73;;
54555;SDS011;57291;37.520;15.106;2022-11-15T18:14:55;15.55;;;7.85;;
54555;SDS011;57291;37.520;15.106;2022-11-15T18:17:22;17.10;;;9.07;;
54555;SDS011;57291;37.520;15.106;2022-11-15T18:19:49;16.95;;;8.60;;
54555;SDS011;57291;37.520;15.106;2022-11-15T18:22:16;22.00;;;9.93;;
54555;SDS011;57291;37.520;15.106;2022-11-15T18:24:44;18.17;;;9.98;;
54555;SDS011;57291;37.520;15.106;2022-11-15T18:27:12;24.52;;;12.70;;
54555;SDS011;57291;37.520;15.106;2022-11-15T18:29:39;25.80;;;13.77;;
54555;SDS011;57291;37.520;15.106;2022-11-15T18:32:07;21.80;;;12.07;;
54555;SDS011;57291;37.520;15.106;2022-11-15T18:34:38;18.00;;;10.70;;